createdAt,value
2019-02-15T00:01:18.492Z,100325.84
2019-02-15T00:03:22.686Z,100319.23
2019-02-15T00:05:28.923Z,100319.41
2019-02-15T00:07:33.409Z,100317.71
2019-02-15T00:09:37.591Z,100316.89
2019-02-15T00:11:41.894Z,100312.99
2019-02-15T00:13:46.407Z,100311.50
2019-02-15T00:15:50.663Z,100306.26
2019-02-15T00:18:14.052Z,100306.75
2019-02-15T00:20:26.758Z,100301.36
2019-02-15T00:22:31.261Z,100301.89
2019-02-15T00:24:37.599Z,100300.86
2019-02-15T00:26:41.770Z,100299.83
2019-02-15T00:28:46.095Z,100304.86
2019-02-15T00:30:50.514Z,100302.84
2019-02-15T00:32:54.868Z,100301.17
2019-02-15T00:34:59.266Z,100308.71
2019-02-15T00:37:03.812Z,100311.89
2019-02-15T00:39:08.328Z,100318.25
2019-02-15T00:41:12.757Z,100314.34
2019-02-15T00:43:22.247Z,100315.01
2019-02-15T00:45:26.637Z,100312.63
2019-02-15T00:47:52.852Z,100311.95
2019-02-15T00:50:11.343Z,100316.97
2019-02-15T00:52:34.451Z,100322.04
2019-02-15T00:55:00.118Z,100325.36
2019-02-15T00:57:26.599Z,100322.34
2019-02-15T00:59:56.064Z,100329.38
2019-02-15T01:02:37.257Z,100325.83
2019-02-15T01:05:00.904Z,100330.83
2019-02-15T01:07:36.170Z,100327.72
2019-02-15T01:09:48.314Z,100326.09
2019-02-15T01:11:58.749Z,100330.16
2019-02-15T01:14:02.835Z,100330.80
2019-02-15T01:16:07.121Z,100328.95
2019-02-15T01:18:11.516Z,100325.44
2019-02-15T01:20:15.769Z,100328.77
2019-02-15T01:22:20.459Z,100321.58
2019-02-15T01:24:24.806Z,100324.92
2019-02-15T01:26:47.884Z,100321.90
2019-02-15T01:29:14.669Z,100317.27
2019-02-15T01:31:40.853Z,100315.81
2019-02-15T01:33:56.825Z,100313.33
2019-02-15T01:36:28.734Z,100309.19
2019-02-15T01:38:52.118Z,100310.55
2019-02-15T01:41:18.926Z,100312.45
2019-02-15T01:43:57.285Z,100315.16
2019-02-15T01:46:09.951Z,100315.16
2019-02-15T01:48:14.593Z,100318.37
2019-02-15T01:50:18.876Z,100319.97
2019-02-15T01:52:23.511Z,100312.54
2019-02-15T01:54:27.958Z,100316.66
2019-02-15T01:56:32.444Z,100316.88
2019-02-15T01:58:36.850Z,100313.15
2019-02-15T02:00:41.504Z,100308.84
2019-02-15T02:02:46.394Z,100310.72
2019-02-15T02:04:50.606Z,100312.33
2019-02-15T02:06:55.351Z,100308.10
2019-02-15T02:08:59.874Z,100307.41
2019-02-15T02:11:04.339Z,100302.33
2019-02-15T02:13:08.805Z,100297.26
2019-02-15T02:15:13.753Z,100299.19
2019-02-15T02:17:18.152Z,100290.44
2019-02-15T02:19:22.692Z,100289.48
2019-02-15T02:21:26.869Z,100288.53
2019-02-15T02:23:31.404Z,100287.28
2019-02-15T02:25:35.819Z,100291.41
2019-02-15T02:27:40.293Z,100286.42
2019-02-15T02:29:44.914Z,100291.14
2019-02-15T02:31:49.381Z,100289.62
2019-02-15T02:33:53.978Z,100284.45
2019-02-15T02:35:59.133Z,100289.03
2019-02-15T02:38:03.821Z,100282.14
2019-02-15T02:40:08.351Z,100275.28
2019-02-15T02:42:12.694Z,100282.86
2019-02-15T02:44:16.886Z,100279.12
2019-02-15T02:46:21.104Z,100281.81
2019-02-15T02:48:27.520Z,100279.26
2019-02-15T02:50:31.780Z,100278.77
2019-02-15T02:52:36.168Z,100277.78
2019-02-15T02:54:40.744Z,100283.16
2019-02-15T02:56:45.027Z,100272.41
2019-02-15T02:58:49.340Z,100274.92
2019-02-15T03:00:53.936Z,100265.38
2019-02-15T03:02:58.530Z,100267.05
2019-02-15T03:05:06.218Z,100261.48
2019-02-15T03:07:10.614Z,100256.27
2019-02-15T03:09:17.720Z,100265.02
2019-02-15T03:11:22.104Z,100270.40
2019-02-15T03:13:26.507Z,100267.33
2019-02-15T03:15:31.005Z,100260.39
2019-02-15T03:17:35.609Z,100261.19
2019-02-15T03:19:39.789Z,100260.20
2019-02-15T03:21:43.995Z,100267.24
2019-02-15T03:23:48.242Z,100268.95
2019-02-15T03:25:52.615Z,100269.93
2019-02-15T03:27:57.275Z,100263.51
2019-02-15T03:30:01.714Z,100264.17
2019-02-15T03:32:05.781Z,100262.33
2019-02-15T03:34:09.897Z,100271.58
2019-02-15T03:36:22.468Z,100262.88
2019-02-15T03:38:35.241Z,100258.19
2019-02-15T03:40:44.790Z,100262.91
2019-02-15T03:42:51.010Z,100260.22
2019-02-15T03:44:55.335Z,100263.89
2019-02-15T03:46:59.585Z,100260.72
2019-02-15T03:49:03.957Z,100262.91
2019-02-15T03:51:08.175Z,100256.36
2019-02-15T03:53:12.530Z,100256.69
2019-02-15T03:55:20.077Z,100256.19
2019-02-15T03:57:24.204Z,100253.50
2019-02-15T03:59:28.571Z,100251.00
2019-02-15T04:01:32.953Z,100244.97
2019-02-15T04:03:37.311Z,100242.75
2019-02-15T04:05:41.939Z,100245.82
2019-02-15T04:07:46.483Z,100241.38
2019-02-15T04:09:53.754Z,100238.62
2019-02-15T04:11:58.210Z,100235.42
2019-02-15T04:14:02.274Z,100239.12
2019-02-15T04:16:06.595Z,100237.48
2019-02-15T04:18:10.729Z,100232.30
2019-02-15T04:20:15.124Z,100235.34
2019-02-15T04:22:19.297Z,100237.02
2019-02-15T04:24:24.308Z,100231.14
2019-02-15T04:26:28.653Z,100234.19
2019-02-15T04:28:33.007Z,100241.59
2019-02-15T04:30:37.378Z,100240.61
2019-02-15T04:32:41.712Z,100241.43
2019-02-15T04:34:46.315Z,100244.97
2019-02-15T04:36:50.651Z,100245.46
2019-02-15T04:38:55.159Z,100250.84
2019-02-15T04:40:59.967Z,100247.33
2019-02-15T04:43:04.097Z,100244.12
2019-02-15T04:45:08.647Z,100253.03
2019-02-15T04:47:12.943Z,100253.33
2019-02-15T04:49:17.284Z,100253.11
2019-02-15T04:51:22.038Z,100251.88
2019-02-15T04:53:26.380Z,100251.19
2019-02-15T04:55:30.768Z,100252.89
2019-02-15T04:57:34.972Z,100252.72
2019-02-15T04:59:39.057Z,100248.52
2019-02-15T05:01:43.432Z,100249.87
2019-02-15T05:03:48.019Z,100250.39
2019-02-15T05:05:52.555Z,100246.50
2019-02-15T05:07:56.863Z,100252.36
2019-02-15T05:10:01.098Z,100254.55
2019-02-15T05:12:05.264Z,100253.21
2019-02-15T05:14:09.647Z,100252.72
2019-02-15T05:16:14.280Z,100258.27
2019-02-15T05:18:19.041Z,100257.21
2019-02-15T05:20:23.463Z,100262.52
2019-02-15T05:22:28.042Z,100267.87
2019-02-15T05:24:32.384Z,100258.43
2019-02-15T05:26:36.730Z,100259.05
2019-02-15T05:28:41.197Z,100264.56
2019-02-15T05:30:45.479Z,100258.27
2019-02-15T05:32:50.133Z,100261.24
2019-02-15T05:34:54.519Z,100259.96
2019-02-15T05:36:58.725Z,100262.46
2019-02-15T05:39:03.142Z,100261.73
2019-02-15T05:41:07.711Z,100257.78
2019-02-15T05:43:14.952Z,100267.58
2019-02-15T05:45:19.119Z,100268.47
2019-02-15T05:47:23.508Z,100264.15
2019-02-15T05:49:27.761Z,100267.89
2019-02-15T05:51:34.511Z,100270.25
2019-02-15T05:53:41.301Z,100272.15
2019-02-15T05:55:45.848Z,100274.67
2019-02-15T05:57:50.385Z,100270.25
2019-02-15T05:59:54.567Z,100270.59
2019-02-15T06:01:58.655Z,100272.06
2019-02-15T06:04:03.375Z,100264.78
2019-02-15T06:06:07.852Z,100266.28
2019-02-15T06:08:12.337Z,100266.12
2019-02-15T06:10:16.327Z,100264.33
2019-02-15T06:12:20.504Z,100263.59
2019-02-15T06:14:25.126Z,100260.97
2019-02-15T06:16:29.680Z,100265.20
2019-02-15T06:18:33.934Z,100260.52
2019-02-15T06:20:40.714Z,100262.39
2019-02-15T06:22:47.183Z,100264.45
2019-02-15T06:24:51.593Z,100263.11
2019-02-15T06:26:56.198Z,100271.66
2019-02-15T06:29:00.810Z,100269.30
2019-02-15T06:31:07.724Z,100268.97
2019-02-15T06:33:12.882Z,100266.58
2019-02-15T06:41:15.431Z,100269.27
2019-02-15T06:43:34.134Z,100271.02
2019-02-15T06:46:00.056Z,100260.46
2019-02-15T06:48:12.611Z,100263.48
2019-02-15T06:50:38.037Z,100267.37
2019-02-15T06:53:10.010Z,100271.44
2019-02-15T06:55:43.306Z,100274.25
2019-02-15T06:57:49.138Z,100269.73
2019-02-15T07:00:31.460Z,100272.62
2019-02-15T07:02:55.360Z,100274.78
2019-02-15T07:05:26.239Z,100286.12
2019-02-15T07:07:37.318Z,100285.19
2019-02-15T07:09:47.576Z,100288.31
2019-02-15T07:11:59.172Z,100289.17
2019-02-15T07:14:06.360Z,100289.17
2019-02-15T07:16:15.830Z,100295.59
2019-02-15T07:21:50.453Z,100293.91
2019-02-15T07:24:10.049Z,100294.34
2019-02-15T07:26:27.988Z,100300.94
2019-02-15T07:28:41.562Z,100301.55
2019-02-15T07:31:05.442Z,100300.34
2019-02-15T07:39:01.285Z,100299.05
2019-02-15T07:41:24.289Z,100304.36
2019-02-15T07:57:13.125Z,100290.91
2019-02-15T08:12:09.239Z,100293.52
2019-02-15T08:25:58.113Z,100284.56
2019-02-15T08:28:07.188Z,100281.48
2019-02-15T08:30:21.979Z,100276.36
2019-02-15T08:32:39.859Z,100274.91
2019-02-15T08:34:52.132Z,100277.98
2019-02-15T08:37:11.036Z,100275.84
2019-02-15T08:39:31.285Z,100272.70
2019-02-15T08:42:01.376Z,100270.44
2019-02-15T08:44:10.583Z,100275.45
2019-02-15T08:51:58.357Z,100267.36
2019-02-15T08:54:26.875Z,100264.31
2019-02-15T08:56:45.340Z,100260.03
2019-02-15T08:58:54.730Z,100264.46
2019-02-15T09:01:22.848Z,100267.43
2019-02-15T09:03:31.512Z,100266.38
2019-02-15T09:05:50.353Z,100265.88
2019-02-15T09:08:19.150Z,100276.17
2019-02-15T09:17:22.036Z,100263.68
2019-02-15T09:19:46.477Z,100249.62
2019-02-15T09:22:23.217Z,100262.47
2019-02-15T09:25:12.443Z,100258.61
2019-02-15T09:27:52.376Z,100256.38
2019-02-15T09:31:50.031Z,100254.37
2019-02-15T09:32:57.117Z,100255.56
2019-02-15T09:35:28.317Z,100254.01
2019-02-15T09:43:58.586Z,100247.73
2019-02-15T09:46:57.181Z,100249.95
2019-02-15T09:49:37.513Z,100249.74
2019-02-15T09:52:11.047Z,100250.79
2019-02-15T09:54:25.293Z,100246.16
2019-02-15T09:56:47.204Z,100246.02
2019-02-15T09:58:55.778Z,100248.53
2019-02-15T10:01:23.402Z,100242.22
2019-02-15T10:04:13.462Z,100247.73
2019-02-15T10:09:10.301Z,100244.16
2019-02-15T10:11:24.945Z,100246.32
2019-02-15T10:13:44.120Z,100250.72
2019-02-15T10:16:10.969Z,100249.09
2019-02-15T10:18:30.657Z,100243.04
2019-02-15T10:20:43.593Z,100239.62
2019-02-15T10:22:56.733Z,100239.00
2019-02-15T10:25:16.295Z,100241.09
2019-02-15T10:27:41.459Z,100230.16
2019-02-15T10:35:19.618Z,100227.79
2019-02-15T10:37:50.294Z,100220.98
2019-02-15T10:40:06.174Z,100220.67
2019-02-15T10:42:11.244Z,100205.97
2019-02-15T10:44:21.327Z,100212.14
2019-02-15T10:46:26.958Z,100205.56
2019-02-15T10:48:36.723Z,100204.59
2019-02-15T10:50:51.404Z,100200.16
2019-02-15T10:53:07.791Z,100196.80
2019-02-15T10:55:18.244Z,100200.47
2019-02-15T10:57:28.458Z,100197.29
2019-02-15T10:59:44.262Z,100187.14
2019-02-15T11:04:31.553Z,100185.83
2019-02-15T11:06:52.867Z,100186.36
2019-02-15T11:09:10.417Z,100190.44
2019-02-15T11:11:26.942Z,100188.63
2019-02-15T11:13:45.932Z,100194.52
2019-02-15T11:16:07.781Z,100189.37
2019-02-15T11:18:38.002Z,100180.77
2019-02-15T11:20:47.595Z,100177.91
2019-02-15T11:23:08.746Z,100176.98
2019-02-15T11:30:53.700Z,100162.58
2019-02-15T11:33:06.247Z,100157.41
2019-02-15T11:35:11.647Z,100146.09
2019-02-15T11:37:24.496Z,100142.16
2019-02-15T11:39:41.115Z,100141.95
2019-02-15T11:41:50.642Z,100137.99
2019-02-15T11:43:59.546Z,100137.50
2019-02-15T11:46:14.879Z,100133.64
2019-02-15T11:48:35.952Z,100133.80
2019-02-15T11:50:52.449Z,100129.42
2019-02-15T11:52:59.286Z,100132.06
2019-02-15T11:55:17.022Z,100123.62
2019-02-15T11:57:38.664Z,100126.93
2019-02-15T11:59:53.235Z,100120.56
2019-02-15T12:02:15.513Z,100117.06
2019-02-15T12:04:33.445Z,100114.00
2019-02-15T12:06:55.076Z,100111.28
2019-02-15T12:08:59.744Z,100112.25
2019-02-15T12:11:14.284Z,100108.33
2019-02-15T12:13:35.042Z,100108.05
2019-02-15T12:15:43.020Z,100097.77
2019-02-15T12:17:57.828Z,100099.20
2019-02-15T12:25:59.038Z,100091.48
2019-02-15T12:28:11.757Z,100091.27
2019-02-15T12:30:20.837Z,100084.63
2019-02-15T12:32:34.923Z,100082.66
2019-02-15T12:34:48.889Z,100081.31
2019-02-15T12:36:58.602Z,100081.22
2019-02-15T12:39:16.419Z,100074.09
2019-02-15T12:41:23.905Z,100068.55
2019-02-15T12:43:59.094Z,100070.70
2019-02-15T12:46:06.364Z,100068.27
2019-02-15T12:50:42.663Z,100051.11
2019-02-15T12:52:05.671Z,100056.34
2019-02-15T12:54:28.727Z,100054.02
2019-02-15T12:56:42.045Z,100047.72
2019-02-15T12:58:49.505Z,100046.38
2019-02-15T13:01:31.593Z,100037.64
2019-02-15T13:03:57.527Z,100034.30
2019-02-15T13:06:08.419Z,100037.50
2019-02-15T13:08:33.729Z,100030.23
2019-02-15T13:10:47.748Z,100029.40
2019-02-15T13:13:05.352Z,100027.81
2019-02-15T13:15:20.774Z,100023.15
2019-02-15T13:17:48.323Z,100028.05
2019-02-15T13:20:05.372Z,100027.37
2019-02-15T13:22:20.259Z,100024.36
2019-02-15T13:24:27.093Z,100025.58
2019-02-15T13:26:54.831Z,100020.35
2019-02-15T13:29:04.418Z,100018.59
2019-02-15T13:31:24.136Z,100012.77
2019-02-15T13:33:32.493Z,100019.70
2019-02-15T13:41:16.870Z,100003.75
2019-02-15T13:43:53.401Z,99992.70
2019-02-15T13:46:17.153Z,99990.23
2019-02-15T13:51:11.782Z,99985.19
2019-02-15T13:53:22.105Z,99976.85
2019-02-15T13:55:42.185Z,99978.79
2019-02-15T13:57:48.568Z,99978.48
2019-02-15T14:00:12.734Z,99974.37
2019-02-15T14:02:20.199Z,99973.42
2019-02-15T14:04:30.262Z,99970.78
2019-02-15T14:06:51.633Z,99959.80
2019-02-15T14:09:08.930Z,99957.53
2019-02-15T14:37:11.383Z,99929.88
2019-02-15T14:40:00.405Z,99932.56
2019-02-15T14:45:53.992Z,99933.88
2019-02-15T14:48:20.026Z,99927.83
2019-02-15T14:51:04.118Z,99925.92
2019-02-15T14:53:39.566Z,99925.92
2019-02-15T14:59:45.318Z,99913.78
2019-02-15T15:02:22.000Z,99916.58
2019-02-15T15:04:51.775Z,99911.63
2019-02-15T15:07:24.631Z,99908.87
2019-02-15T15:12:28.115Z,99909.58
2019-02-15T15:15:08.555Z,99912.55
2019-02-15T15:18:59.740Z,99905.58
2019-02-15T15:20:26.297Z,99893.75
2019-02-15T15:37:16.756Z,99885.61
2019-02-15T15:40:10.674Z,99883.28
2019-02-15T15:43:06.971Z,99877.94
2019-02-15T15:48:32.792Z,99879.42
2019-02-15T16:10:26.234Z,99867.07
2019-02-15T16:15:17.472Z,99872.47
2019-02-15T16:17:23.910Z,99878.06
2019-02-15T16:19:28.960Z,99882.25
2019-02-15T16:21:33.839Z,99877.16
2019-02-15T16:23:39.179Z,99876.22
2019-02-15T16:25:44.401Z,99871.42
2019-02-15T16:27:49.503Z,99875.39
2019-02-15T16:29:54.237Z,99878.30
2019-02-15T16:31:59.188Z,99880.58
2019-02-15T16:34:05.767Z,99883.41
2019-02-15T16:36:10.227Z,99883.27
2019-02-15T16:38:14.995Z,99887.23
2019-02-15T16:40:19.978Z,99884.67
2019-02-15T16:42:24.445Z,99888.70
2019-02-15T16:44:29.023Z,99884.98
2019-02-15T16:46:33.948Z,99887.03
2019-02-15T16:48:42.020Z,99887.41
2019-02-15T16:50:44.533Z,99890.84
2019-02-15T16:52:49.631Z,99890.13
2019-02-15T16:54:57.693Z,99890.82
2019-02-15T16:57:02.254Z,99891.52
2019-02-15T16:59:06.779Z,99894.93
2019-02-15T17:01:11.451Z,99889.00
2019-02-15T17:03:16.242Z,99889.16
2019-02-15T17:05:20.540Z,99887.63
2019-02-15T17:07:25.622Z,99897.33
2019-02-15T17:09:32.181Z,99895.80
2019-02-15T17:11:36.877Z,99895.08
2019-02-15T17:13:41.857Z,99894.08
2019-02-15T17:15:46.879Z,99895.28
2019-02-15T17:17:51.528Z,99895.36
2019-02-15T17:19:56.695Z,99901.70
2019-02-15T17:22:01.587Z,99897.36
2019-02-15T17:24:06.260Z,99897.78
2019-02-15T17:26:10.916Z,99895.77
2019-02-15T17:28:15.976Z,99902.87
2019-02-15T17:30:20.599Z,99909.64
2019-02-15T17:32:25.108Z,99902.55
2019-02-15T17:34:30.034Z,99902.61
2019-02-15T17:36:34.736Z,99904.55
2019-02-15T17:38:39.326Z,99906.91
2019-02-15T17:40:43.729Z,99897.91
2019-02-15T17:42:48.152Z,99902.46
2019-02-15T17:44:52.689Z,99902.05
2019-02-15T17:46:57.224Z,99896.94
2019-02-15T17:49:03.366Z,99896.98
2019-02-15T17:51:10.368Z,99888.29
2019-02-15T17:53:15.501Z,99899.84
2019-02-15T17:55:20.239Z,99894.50
2019-02-15T17:57:26.208Z,99893.59
2019-02-15T17:59:31.511Z,99899.76
2019-02-15T18:01:36.210Z,99890.03
2019-02-15T18:03:40.811Z,99896.63
2019-02-15T18:05:45.118Z,99895.72
2019-02-15T18:07:50.549Z,99891.66
2019-02-15T18:09:55.082Z,99895.75
2019-02-15T18:11:59.991Z,99892.02
2019-02-15T18:14:04.500Z,99887.41
2019-02-15T18:16:09.670Z,99883.36
2019-02-15T18:18:14.436Z,99882.61
2019-02-15T18:20:18.934Z,99882.41
2019-02-15T18:22:25.782Z,99876.57
2019-02-15T18:24:32.826Z,99881.91
2019-02-15T18:26:37.878Z,99877.63
2019-02-15T18:28:43.090Z,99879.63
2019-02-15T18:30:47.486Z,99880.79
2019-02-15T18:32:52.531Z,99888.09
2019-02-15T18:35:00.398Z,99880.27
2019-02-15T18:37:04.909Z,99881.42
2019-02-15T18:39:10.118Z,99881.73
2019-02-15T18:41:14.922Z,99881.00
2019-02-15T18:43:19.610Z,99880.25
2019-02-15T18:45:24.694Z,99882.23
2019-02-15T18:47:29.698Z,99885.16
2019-02-15T18:49:34.653Z,99883.47
2019-02-15T18:51:42.507Z,99887.74
2019-02-15T18:53:47.294Z,99886.50
2019-02-15T18:55:51.915Z,99888.15
2019-02-15T18:57:57.158Z,99885.54
2019-02-15T19:00:02.014Z,99889.58
2019-02-15T19:02:06.752Z,99889.91
2019-02-15T19:04:11.853Z,99887.05
2019-02-15T19:06:16.593Z,99885.05
2019-02-15T19:08:23.295Z,99884.83
2019-02-15T19:10:27.929Z,99887.39
2019-02-15T19:12:32.534Z,99886.73
2019-02-15T19:14:36.991Z,99887.47
2019-02-15T19:16:42.243Z,99885.15
2019-02-15T19:18:47.366Z,99885.15
2019-02-15T19:20:52.250Z,99885.88
2019-02-15T19:22:57.872Z,99887.64
2019-02-15T19:25:03.199Z,99882.09
2019-02-15T19:27:08.629Z,99882.63
2019-02-15T19:29:13.794Z,99882.19
2019-02-15T19:31:19.796Z,99879.58
2019-02-15T19:33:25.093Z,99878.28
2019-02-15T19:35:30.232Z,99877.14
2019-02-15T19:37:35.480Z,99871.59
2019-02-15T19:39:40.639Z,99868.13
2019-02-15T19:41:45.853Z,99878.03
2019-02-15T19:43:51.068Z,99872.37
2019-02-15T19:45:56.312Z,99870.33
2019-02-15T19:48:01.334Z,99874.80
2019-02-15T19:50:09.794Z,99874.80
2019-02-15T19:52:14.540Z,99871.12
2019-02-15T19:54:19.480Z,99870.37
2019-02-15T19:56:24.341Z,99876.30
2019-02-15T19:58:29.469Z,99880.08
2019-02-15T20:00:35.596Z,99878.90
2019-02-15T20:02:40.716Z,99881.70
2019-02-15T20:04:45.710Z,99883.97
2019-02-15T20:06:50.734Z,99880.83
2019-02-15T20:08:55.940Z,99875.58
2019-02-15T20:11:01.113Z,99871.81
2019-02-15T20:13:06.150Z,99867.30
2019-02-15T20:15:11.914Z,99872.59
2019-02-15T20:17:16.852Z,99870.61
2019-02-15T20:19:21.467Z,99868.16
2019-02-15T20:21:26.494Z,99874.09
2019-02-15T20:23:31.811Z,99874.48
2019-02-15T20:25:36.255Z,99880.84
2019-02-15T20:27:40.720Z,99871.23
2019-02-15T20:29:49.427Z,99866.40
2019-02-15T20:31:52.565Z,99868.14
2019-02-15T20:33:57.739Z,99863.31
2019-02-15T20:36:03.008Z,99861.50
2019-02-15T20:38:08.811Z,99863.75
2019-02-15T20:40:14.402Z,99864.05
2019-02-15T20:42:19.882Z,99863.46
2019-02-15T20:44:25.192Z,99870.70
2019-02-15T20:46:30.469Z,99877.47
2019-02-15T20:48:38.556Z,99873.98
2019-02-15T20:50:43.721Z,99868.44
2019-02-15T20:52:49.777Z,99869.73
2019-02-15T20:54:55.076Z,99866.05
2019-02-15T20:57:01.020Z,99860.05
2019-02-15T20:59:05.782Z,99863.77
2019-02-15T21:01:10.927Z,99863.33
2019-02-15T21:03:17.812Z,99854.73
2019-02-15T21:05:23.735Z,99860.23
2019-02-15T21:07:28.540Z,99851.33
2019-02-15T21:09:33.997Z,99855.94
2019-02-15T21:11:39.434Z,99848.91
2019-02-15T21:13:44.256Z,99852.70
2019-02-15T21:15:49.697Z,99856.36
2019-02-15T21:17:54.821Z,99853.78
2019-02-15T21:20:07.430Z,99845.53
2019-02-15T21:22:06.425Z,99841.67
2019-02-15T21:24:11.359Z,99840.49
2019-02-15T21:26:15.954Z,99832.07
2019-02-15T21:28:21.425Z,99835.80
2019-02-15T21:30:26.339Z,99833.29
2019-02-15T21:32:32.188Z,99833.29
2019-02-15T21:34:37.225Z,99829.09
2019-02-15T21:36:41.908Z,99827.09
2019-02-15T21:38:46.310Z,99827.47
2019-02-15T21:40:51.090Z,99831.53
2019-02-15T21:42:59.755Z,99830.88
2019-02-15T21:45:07.736Z,99831.05
2019-02-15T21:47:12.997Z,99835.11
2019-02-15T21:49:18.283Z,99834.13
2019-02-15T21:51:23.379Z,99831.82
2019-02-15T21:53:27.783Z,99830.20
2019-02-15T21:55:33.125Z,99828.75
2019-02-15T21:57:38.069Z,99830.48
2019-02-15T21:59:43.553Z,99830.34
2019-02-15T22:01:48.432Z,99825.64
2019-02-15T22:03:53.786Z,99820.44
2019-02-15T22:05:59.065Z,99829.34
2019-02-15T22:08:04.010Z,99830.81
2019-02-15T22:10:09.510Z,99826.61
2019-02-15T22:12:14.709Z,99828.81
2019-02-15T22:14:19.551Z,99831.60
2019-02-15T22:16:25.128Z,99831.89
2019-02-15T22:18:30.281Z,99831.22
2019-02-15T22:20:35.340Z,99829.88
2019-02-15T22:22:40.244Z,99826.78
2019-02-15T22:24:45.143Z,99829.62
2019-02-15T22:26:49.994Z,99827.27
2019-02-15T22:28:54.788Z,99826.25
2019-02-15T22:30:59.394Z,99830.95
2019-02-15T22:33:04.366Z,99833.45
2019-02-15T22:35:09.274Z,99836.16
2019-02-15T22:37:14.398Z,99831.27
2019-02-15T22:39:19.104Z,99836.16
2019-02-15T22:41:23.786Z,99840.41
2019-02-15T22:43:28.633Z,99842.77
2019-02-15T22:45:33.345Z,99836.52
2019-02-15T22:47:38.083Z,99833.17
2019-02-15T22:49:43.671Z,99834.22
2019-02-15T22:51:48.544Z,99833.03
2019-02-15T22:53:54.677Z,99830.83
2019-02-15T22:55:59.269Z,99831.38
2019-02-15T22:58:04.648Z,99827.84
2019-02-15T23:00:13.221Z,99824.33
2019-02-15T23:02:18.272Z,99822.64
2019-02-15T23:04:22.698Z,99830.40
2019-02-15T23:06:27.615Z,99831.09
2019-02-15T23:08:32.307Z,99829.95
2019-02-15T23:10:37.067Z,99829.45
2019-02-15T23:12:41.560Z,99831.01
2019-02-15T23:14:46.431Z,99829.51
2019-02-15T23:16:51.165Z,99830.20
2019-02-15T23:18:56.155Z,99822.47
2019-02-15T23:21:00.803Z,99828.88
2019-02-15T23:23:06.581Z,99826.37
2019-02-15T23:25:11.836Z,99820.83
2019-02-15T23:27:16.449Z,99810.19
2019-02-15T23:29:21.690Z,99809.03
2019-02-15T23:31:26.324Z,99812.59
2019-02-15T23:33:31.208Z,99811.29
2019-02-15T23:35:35.757Z,99811.34
2019-02-15T23:37:42.990Z,99813.20
2019-02-15T23:39:47.454Z,99809.55
2019-02-15T23:41:52.224Z,99806.86
2019-02-15T23:43:56.651Z,99801.15
2019-02-15T23:46:12.962Z,99802.50
2019-02-15T23:48:51.058Z,99801.66
2019-02-15T23:50:55.448Z,99810.61
2019-02-15T23:53:30.747Z,99803.56
2019-02-15T23:55:35.034Z,99805.27
2019-02-15T23:57:40.652Z,99801.27
2019-02-15T23:59:53.606Z,99802.27
